Time;durP1;ratioP1;P1;durP2;ratioP2;P2;SDS_P1;SDS_P2;PMS_P1;PMS_P2;Temp;Humidity;BMP_temperature;BMP_pressure;BME280_temperature;BME280_humidity;BME280_pressure;Samples;Min_cycle;Max_cycle;Signal;HPM_P1;HPM_P2
2022/04/15 00:00:29;;;;;;;10.07;6.20;;;8.00;99.90;;;;;;5039897;28;20104;-80
2022/04/15 00:02:55;;;;;;;14.48;6.30;;;8.00;99.90;;;;;;5038472;28;20527;-79
2022/04/15 00:05:34;;;;;;;11.63;5.55;;;8.00;99.90;;;;;;5045348;28;20496;-80
2022/04/15 00:08:06;;;;;;;11.10;6.10;;;8.00;99.90;;;;;;5038730;28;20045;-80
2022/04/15 00:10:33;;;;;;;8.98;5.93;;;8.00;99.90;;;;;;5044553;28;20373;-79
2022/04/15 00:13:00;;;;;;;13.00;6.00;;;8.10;99.90;;;;;;5036675;28;20477;-80
2022/04/15 00:15:27;;;;;;;15.25;6.72;;;8.10;99.90;;;;;;5042879;28;20037;-80
2022/04/15 00:17:54;;;;;;;9.10;5.65;;;8.10;99.90;;;;;;5038256;28;20076;-80
2022/04/15 00:20:20;;;;;;;12.70;5.40;;;8.10;99.90;;;;;;5045339;28;20116;-80
2022/04/15 00:22:46;;;;;;;11.52;6.68;;;8.10;99.90;;;;;;5044578;28;20056;-80
2022/04/15 00:25:12;;;;;;;10.90;6.47;;;8.10;99.90;;;;;;5043446;28;20041;-80
2022/04/15 00:27:40;;;;;;;13.13;6.43;;;8.10;99.90;;;;;;5040431;28;20049;-80
2022/04/15 00:30:07;;;;;;;11.25;6.35;;;8.10;99.90;;;;;;5040491;28;20077;-80
2022/04/15 00:32:33;;;;;;;11.95;6.28;;;8.20;99.90;;;;;;5037707;28;20076;-80
2022/04/15 00:34:58;;;;;;;9.98;5.97;;;8.10;99.90;;;;;;5046897;28;20421;-80
2022/04/15 00:37:24;;;;;;;15.55;6.05;;;8.20;99.90;;;;;;5038038;28;20048;-80
2022/04/15 00:39:51;;;;;;;9.77;6.18;;;8.20;99.90;;;;;;5042908;28;20054;-80
2022/04/15 00:42:16;;;;;;;10.13;6.10;;;8.20;99.90;;;;;;5032430;28;20053;-80
2022/04/15 00:44:42;;;;;;;11.35;5.70;;;8.20;99.90;;;;;;5031126;28;20049;-80
2022/04/15 00:47:16;;;;;;;10.85;5.88;;;8.20;99.90;;;;;;5039118;28;20443;-80
2022/04/15 00:49:41;;;;;;;12.10;6.27;;;8.20;99.90;;;;;;5032840;28;20091;-80
2022/04/15 00:52:12;;;;;;;8.98;6.03;;;8.20;99.90;;;;;;5035886;28;20148;-80
2022/04/15 00:54:42;;;;;;;8.73;5.55;;;8.30;99.90;;;;;;5048760;28;20579;-79
2022/04/15 00:57:11;;;;;;;13.70;6.10;;;8.30;99.90;;;;;;5036593;28;20064;-79
2022/04/15 00:59:38;;;;;;;12.07;6.07;;;8.30;99.90;;;;;;5035651;28;20050;-79
2022/04/15 01:02:05;;;;;;;10.93;6.28;;;8.30;99.90;;;;;;5036660;28;20053;-79
2022/04/15 01:04:31;;;;;;;11.15;6.25;;;8.30;99.90;;;;;;5043883;28;20064;-80
2022/04/15 01:07:02;;;;;;;14.07;6.20;;;8.30;99.90;;;;;;5039765;28;20033;-79
2022/04/15 01:09:32;;;;;;;14.48;6.00;;;8.30;99.90;;;;;;5042189;28;20056;-80
2022/04/15 01:11:58;;;;;;;9.40;5.70;;;8.40;99.90;;;;;;5036484;28;20052;-79
2022/04/15 01:14:25;;;;;;;10.15;5.82;;;8.40;99.90;;;;;;5043153;28;20069;-79
2022/04/15 01:16:51;;;;;;;12.65;5.53;;;8.40;99.90;;;;;;5045441;28;20136;-80
2022/04/15 01:19:17;;;;;;;10.48;5.78;;;8.40;99.90;;;;;;5049596;28;20124;-79
2022/04/15 01:21:46;;;;;;;12.93;5.88;;;8.40;99.90;;;;;;5045592;28;20502;-80
2022/04/15 01:24:13;;;;;;;12.55;5.47;;;8.50;99.90;;;;;;5035221;28;20512;-79
2022/04/15 01:26:38;;;;;;;10.13;4.85;;;8.40;99.90;;;;;;5050701;28;20053;-80
2022/04/15 01:29:05;;;;;;;14.75;6.50;;;8.50;99.90;;;;;;5042858;28;20040;-79
2022/04/15 01:31:31;;;;;;;10.43;5.07;;;8.50;99.90;;;;;;5039874;28;20045;-79
2022/04/15 01:33:59;;;;;;;14.98;5.57;;;8.50;99.90;;;;;;5045493;28;20033;-79
2022/04/15 01:36:25;;;;;;;11.63;5.55;;;8.50;99.90;;;;;;5042562;28;20508;-80
2022/04/15 01:38:51;;;;;;;10.43;5.28;;;8.50;99.90;;;;;;5039079;28;20038;-79
2022/04/15 01:41:17;;;;;;;10.00;5.00;;;8.50;99.90;;;;;;5038625;28;20049;-79
2022/04/15 01:43:43;;;;;;;8.45;5.00;;;8.80;99.90;;;;;;5036668;28;20080;-79
2022/04/15 01:46:09;;;;;;;11.35;5.43;;;8.70;99.90;;;;;;5048984;28;20065;-79
2022/04/15 01:48:34;;;;;;;11.00;5.03;;;8.60;99.90;;;;;;5048168;28;20563;-80
2022/04/15 01:51:01;;;;;;;10.45;5.03;;;8.60;99.90;;;;;;5055299;28;20132;-80
2022/04/15 01:53:27;;;;;;;10.98;4.90;;;8.60;99.90;;;;;;5041995;28;20128;-79
2022/04/15 01:55:52;;;;;;;9.93;5.20;;;8.60;99.90;;;;;;5036150;28;20132;-80
2022/04/15 01:58:18;;;;;;;10.63;5.55;;;8.60;99.90;;;;;;5046936;28;20126;-79
2022/04/15 02:00:44;;;;;;;10.85;4.50;;;8.60;99.90;;;;;;5045357;28;20052;-80
2022/04/15 02:03:09;;;;;;;7.85;4.72;;;8.70;99.90;;;;;;5044598;28;20484;-80
2022/04/15 02:05:35;;;;;;;10.77;5.25;;;8.70;99.90;;;;;;5042393;28;20066;-79
2022/04/15 02:08:04;;;;;;;10.48;3.65;;;8.70;99.90;;;;;;5039772;28;20037;-79
2022/04/15 02:10:30;;;;;;;9.70;4.25;;;8.70;99.90;;;;;;5050147;28;20044;-79
2022/04/15 02:12:55;;;;;;;8.77;3.70;;;8.70;99.90;;;;;;5049723;28;20429;-80
2022/04/15 02:15:21;;;;;;;8.15;4.05;;;8.70;99.90;;;;;;5041306;28;20509;-80
2022/04/15 02:17:46;;;;;;;6.75;3.15;;;8.70;99.90;;;;;;5049538;28;20115;-79
2022/04/15 02:20:12;;;;;;;10.00;3.40;;;8.70;99.90;;;;;;5040493;28;20124;-79
2022/04/15 02:22:37;;;;;;;8.20;3.72;;;8.70;99.90;;;;;;5044136;28;20046;-80
2022/04/15 02:25:04;;;;;;;10.65;3.72;;;8.70;99.90;;;;;;5037220;28;20057;-79
2022/04/15 02:27:30;;;;;;;11.63;3.83;;;8.80;99.90;;;;;;5036785;28;20489;-79
2022/04/15 02:29:58;;;;;;;7.10;3.50;;;8.70;99.90;;;;;;5040470;28;20137;-79
2022/04/15 02:32:25;;;;;;;6.10;3.53;;;8.80;99.90;;;;;;5042602;28;20124;-79
2022/04/15 02:34:51;;;;;;;7.32;3.58;;;8.80;99.90;;;;;;5047613;28;20124;-79
2022/04/15 02:37:17;;;;;;;10.25;3.47;;;8.80;99.90;;;;;;5043703;28;20175;-80
2022/04/15 02:39:43;;;;;;;7.53;3.50;;;8.80;99.90;;;;;;5041668;28;20056;-80
2022/04/15 02:42:09;;;;;;;9.77;3.58;;;8.80;99.90;;;;;;5039436;28;20076;-79
2022/04/15 02:44:37;;;;;;;9.55;3.55;;;8.80;99.90;;;;;;5048738;28;20057;-79
2022/04/15 02:47:07;;;;;;;14.98;3.67;;;8.80;99.90;;;;;;5044891;28;20068;-79
2022/04/15 02:49:33;;;;;;;7.13;3.08;;;8.80;99.90;;;;;;5043105;28;20060;-79
2022/04/15 02:51:58;;;;;;;8.45;3.90;;;8.80;99.90;;;;;;5045934;28;20052;-79
2022/04/15 02:54:24;;;;;;;7.35;3.08;;;8.80;99.90;;;;;;5045161;28;20175;-79
2022/04/15 02:56:50;;;;;;;7.57;3.50;;;8.80;99.90;;;;;;5043856;28;20061;-79
2022/04/15 02:59:16;;;;;;;10.77;3.42;;;8.90;99.90;;;;;;5045214;28;20056;-79
2022/04/15 03:01:44;;;;;;;8.27;2.90;;;8.90;99.90;;;;;;5045469;28;20061;-80
2022/04/15 03:04:09;;;;;;;13.38;3.67;;;8.90;99.90;;;;;;5045644;28;20118;-80
2022/04/15 03:06:35;;;;;;;7.65;2.70;;;8.90;99.90;;;;;;5038031;28;20069;-80
2022/04/15 03:09:01;;;;;;;8.02;3.03;;;8.90;99.90;;;;;;5044070;28;20041;-79
2022/04/15 03:11:26;;;;;;;8.65;3.35;;;8.90;99.90;;;;;;5045500;28;20550;-79
2022/04/15 03:13:53;;;;;;;10.50;3.85;;;8.90;99.90;;;;;;5038889;28;20042;-80
2022/04/15 03:16:18;;;;;;;11.45;5.72;;;8.90;99.90;;;;;;5039850;28;20045;-79
2022/04/15 03:18:44;;;;;;;10.75;7.00;;;8.90;99.90;;;;;;5037257;28;20099;-80
2022/04/15 03:21:10;;;;;;;15.02;7.80;;;8.90;99.90;;;;;;5038932;28;20136;-79
2022/04/15 03:23:36;;;;;;;13.55;8.85;;;9.00;99.90;;;;;;5043158;28;20115;-79
2022/04/15 03:26:01;;;;;;;15.52;9.23;;;8.80;99.90;;;;;;5048402;28;20036;-78
2022/04/15 03:28:27;;;;;;;15.20;8.93;;;8.80;99.90;;;;;;5042990;28;20477;-79
2022/04/15 03:30:54;;;;;;;15.75;9.60;;;8.80;99.90;;;;;;5043617;28;20047;-79
2022/04/15 03:33:20;;;;;;;15.75;8.70;;;8.90;99.90;;;;;;5041084;28;20037;-79
2022/04/15 03:35:45;;;;;;;14.13;8.18;;;8.70;99.90;;;;;;5044079;28;20408;-78
2022/04/15 03:38:11;;;;;;;16.17;7.95;;;8.70;99.90;;;;;;5040515;28;20045;-79
2022/04/15 03:40:36;;;;;;;13.98;7.50;;;8.70;99.90;;;;;;5039952;28;20497;-79
2022/04/15 03:43:04;;;;;;;11.77;7.60;;;8.60;99.90;;;;;;5039873;28;20037;-79
2022/04/15 03:45:30;;;;;;;13.85;7.88;;;8.60;99.90;;;;;;5040195;28;20111;-80
2022/04/15 03:47:56;;;;;;;15.60;7.68;;;8.60;99.90;;;;;;5039048;28;20041;-80
2022/04/15 03:50:22;;;;;;;11.68;7.28;;;8.60;99.90;;;;;;5040770;28;20082;-79
2022/04/15 03:52:49;;;;;;;9.90;5.75;;;8.60;99.90;;;;;;5044531;28;20045;-79
2022/04/15 03:55:17;;;;;;;7.97;5.20;;;8.50;99.90;;;;;;5039369;28;20086;-80
2022/04/15 03:57:43;;;;;;;7.97;5.53;;;8.50;99.90;;;;;;5043942;28;20340;-80
2022/04/15 04:00:12;;;;;;;8.50;5.20;;;8.50;99.90;;;;;;5043440;28;20053;-79
2022/04/15 04:02:38;;;;;;;7.97;4.97;;;8.40;99.90;;;;;;5039319;28;20041;-80
2022/04/15 04:05:04;;;;;;;8.38;4.68;;;8.40;99.90;;;;;;5041430;28;20413;-79
2022/04/15 04:07:30;;;;;;;7.85;4.97;;;8.30;99.90;;;;;;5038943;28;20038;-79
2022/04/15 04:09:57;;;;;;;9.43;5.32;;;8.30;99.90;;;;;;5046240;28;20045;-80
2022/04/15 04:12:23;;;;;;;8.02;5.28;;;8.30;99.90;;;;;;5043665;28;20053;-78
2022/04/15 04:14:48;;;;;;;9.77;4.95;;;8.50;99.90;;;;;;5043529;28;20604;-80
2022/04/15 04:17:14;;;;;;;7.63;4.80;;;8.20;99.90;;;;;;5040124;28;20396;-80
2022/04/15 04:19:39;;;;;;;7.80;5.20;;;8.20;99.90;;;;;;5039837;28;20041;-79
2022/04/15 04:22:05;;;;;;;7.25;5.05;;;8.20;99.90;;;;;;5037667;28;20527;-79
2022/04/15 04:24:31;;;;;;;8.00;5.20;;;8.20;99.90;;;;;;5033791;28;20045;-79
2022/04/15 04:26:57;;;;;;;10.50;5.70;;;8.20;99.90;;;;;;5037850;28;20143;-80
2022/04/15 04:29:22;;;;;;;9.55;5.15;;;8.10;99.90;;;;;;5044721;28;20081;-80
2022/04/15 04:31:48;;;;;;;8.75;5.32;;;8.10;99.90;;;;;;5038125;28;20136;-80
2022/04/15 04:34:14;;;;;;;10.68;4.95;;;8.10;99.90;;;;;;5038896;28;20040;-80
2022/04/15 04:36:40;;;;;;;8.23;5.35;;;8.10;99.90;;;;;;5046600;28;20052;-80
2022/04/15 04:39:10;;;;;;;7.82;5.20;;;8.10;99.90;;;;;;5042865;28;20830;-80
2022/04/15 04:41:39;;;;;;;8.25;4.85;;;8.10;99.90;;;;;;5033754;28;20087;-80
2022/04/15 04:44:06;;;;;;;10.38;5.18;;;8.10;99.90;;;;;;5041298;28;20115;-80
2022/04/15 04:46:32;;;;;;;9.75;5.00;;;8.10;99.90;;;;;;5038490;28;20056;-80
2022/04/15 04:48:57;;;;;;;8.13;4.75;;;8.10;99.90;;;;;;5036352;28;20047;-80
2022/04/15 04:51:24;;;;;;;7.25;5.03;;;8.10;99.90;;;;;;5048529;28;20136;-80
2022/04/15 04:53:50;;;;;;;7.60;4.85;;;8.10;99.90;;;;;;5039031;28;20042;-80
2022/04/15 04:56:15;;;;;;;7.30;4.70;;;8.10;99.90;;;;;;5035890;28;20102;-80
2022/04/15 04:58:42;;;;;;;8.65;4.90;;;8.10;99.90;;;;;;5041365;28;20411;-80
2022/04/15 05:01:07;;;;;;;9.20;4.68;;;8.10;99.90;;;;;;5046729;28;20059;-80
2022/04/15 05:03:33;;;;;;;8.35;4.55;;;8.10;99.90;;;;;;5039143;28;20136;-80
2022/04/15 05:05:59;;;;;;;10.57;4.85;;;8.10;99.90;;;;;;5040384;28;20136;-80
2022/04/15 05:08:24;;;;;;;7.05;3.72;;;8.10;99.90;;;;;;5038812;28;20049;-80
2022/04/15 05:10:50;;;;;;;8.50;4.13;;;8.10;99.90;;;;;;5042558;28;20037;-80
2022/04/15 05:13:15;;;;;;;5.85;4.00;;;8.10;99.90;;;;;;5039927;28;20045;-79
2022/04/15 05:15:41;;;;;;;6.93;3.97;;;8.10;99.90;;;;;;5040438;28;20110;-79
2022/04/15 05:18:07;;;;;;;7.95;3.58;;;8.10;99.90;;;;;;5039907;28;20029;-78
2022/04/15 05:20:32;;;;;;;7.38;4.13;;;8.10;99.90;;;;;;5044466;28;20451;-81
2022/04/15 05:22:58;;;;;;;9.73;3.83;;;8.10;99.90;;;;;;5043869;28;20170;-82
2022/04/15 05:25:24;;;;;;;6.97;3.80;;;8.10;99.90;;;;;;5038593;28;20480;-80
2022/04/15 05:27:50;;;;;;;7.03;3.88;;;8.10;99.90;;;;;;5036258;28;20149;-81
2022/04/15 05:30:15;;;;;;;6.30;4.43;;;8.10;99.90;;;;;;5040314;28;20121;-80
2022/04/15 05:32:41;;;;;;;7.72;4.15;;;8.10;99.90;;;;;;5046326;28;20041;-80
2022/04/15 05:35:07;;;;;;;6.97;4.43;;;8.10;99.90;;;;;;5042885;28;20037;-75
2022/04/15 05:37:33;;;;;;;8.25;4.28;;;8.10;99.90;;;;;;5043554;28;20150;-77
2022/04/15 05:39:58;;;;;;;7.22;4.55;;;8.10;99.90;;;;;;5035221;28;20088;-76
2022/04/15 05:42:28;;;;;;;9.00;4.80;;;8.00;99.90;;;;;;5038648;28;20053;-76
2022/04/15 05:44:54;;;;;;;7.22;5.10;;;8.00;99.90;;;;;;5046579;28;20122;-76
2022/04/15 05:47:20;;;;;;;10.70;5.88;;;8.00;99.90;;;;;;5046001;28;20072;-75
2022/04/15 05:49:45;;;;;;;9.73;4.93;;;8.00;99.90;;;;;;5037001;28;20497;-76
2022/04/15 05:52:11;;;;;;;9.73;5.32;;;8.00;99.90;;;;;;5037692;28;20041;-76
2022/04/15 05:54:37;;;;;;;9.88;5.00;;;8.10;99.90;;;;;;5033495;28;20509;-75
2022/04/15 05:57:03;;;;;;;9.45;5.15;;;8.00;99.90;;;;;;5050403;28;20059;-75
2022/04/15 05:59:28;;;;;;;9.00;5.47;;;8.00;99.90;;;;;;5044797;28;20045;-74
2022/04/15 06:01:54;;;;;;;7.97;4.95;;;8.00;99.90;;;;;;5039813;28;20037;-75
2022/04/15 06:04:20;;;;;;;9.07;4.97;;;8.00;99.90;;;;;;5046956;28;20044;-75
2022/04/15 06:06:47;;;;;;;9.07;5.50;;;8.00;99.90;;;;;;5045696;28;20127;-76
2022/04/15 06:09:13;;;;;;;8.05;4.75;;;8.10;99.90;;;;;;5042048;28;20400;-76
2022/04/15 06:11:41;;;;;;;9.88;6.03;;;8.10;99.90;;;;;;5041751;28;20060;-74
2022/04/15 06:14:08;;;;;;;9.32;5.75;;;8.10;99.90;;;;;;5044223;28;20504;-75
2022/04/15 06:16:37;;;;;;;11.70;6.70;;;8.10;99.90;;;;;;5046010;28;20041;-75
2022/04/15 06:19:03;;;;;;;11.13;7.03;;;8.10;99.90;;;;;;5038151;28;20120;-76
2022/04/15 06:21:29;;;;;;;11.00;6.47;;;8.10;99.90;;;;;;5042563;28;20465;-76
2022/04/15 06:23:55;;;;;;;11.55;5.97;;;8.20;99.90;;;;;;5038710;28;20047;-75
2022/04/15 06:26:20;;;;;;;10.45;6.57;;;8.20;99.90;;;;;;5049193;28;20040;-75
2022/04/15 06:28:46;;;;;;;10.30;6.13;;;8.20;99.90;;;;;;5040395;28;20052;-74
2022/04/15 06:31:11;;;;;;;10.05;6.72;;;8.20;99.90;;;;;;5040020;28;20045;-75
2022/04/15 06:33:37;;;;;;;11.52;6.75;;;8.20;99.90;;;;;;5040852;28;20037;-75
2022/04/15 06:36:03;;;;;;;11.80;6.60;;;8.30;99.90;;;;;;5060533;28;20110;-75
2022/04/15 06:38:29;;;;;;;11.63;6.63;;;8.30;99.90;;;;;;5048509;28;20041;-75
2022/04/15 06:40:55;;;;;;;10.80;7.00;;;8.30;99.90;;;;;;5045586;28;20045;-76
2022/04/15 06:43:20;;;;;;;14.05;7.15;;;8.40;99.90;;;;;;5050261;28;20047;-75
2022/04/15 06:45:46;;;;;;;11.88;6.90;;;8.40;99.90;;;;;;5049569;28;20412;-75
2022/04/15 06:48:11;;;;;;;17.02;7.85;;;8.40;99.90;;;;;;5050741;28;20132;-75
2022/04/15 06:50:37;;;;;;;14.50;8.32;;;8.40;99.90;;;;;;5048100;28;20044;-75
2022/04/15 06:53:03;;;;;;;14.60;8.23;;;8.40;99.90;;;;;;5053124;28;20433;-75
2022/04/15 06:55:28;;;;;;;13.45;6.93;;;8.40;99.90;;;;;;5049728;28;20048;-77
2022/04/15 06:57:54;;;;;;;16.48;9.13;;;8.50;99.90;;;;;;5044612;28;20053;-77
2022/04/15 07:00:20;;;;;;;14.57;8.20;;;8.50;99.90;;;;;;5051477;28;20063;-76
2022/04/15 07:02:46;;;;;;;16.27;8.60;;;8.60;99.90;;;;;;5050806;28;20493;-77
2022/04/15 07:05:12;;;;;;;14.20;8.82;;;8.60;99.90;;;;;;5051903;28;20866;-76
2022/04/15 07:07:41;;;;;;;16.58;9.52;;;8.60;99.90;;;;;;5050594;28;20036;-77
2022/04/15 07:10:08;;;;;;;14.05;9.05;;;8.70;99.90;;;;;;5051669;28;20045;-77
2022/04/15 07:12:34;;;;;;;16.05;8.98;;;8.70;99.90;;;;;;5047555;28;20776;-77
2022/04/15 07:15:00;;;;;;;17.13;9.25;;;8.80;99.90;;;;;;5047727;28;20051;-77
2022/04/15 07:17:26;;;;;;;16.75;9.52;;;8.80;99.90;;;;;;5050097;28;20059;-77
2022/04/15 07:19:52;;;;;;;16.60;9.60;;;8.80;99.90;;;;;;5049967;28;20041;-77
2022/04/15 07:22:18;;;;;;;16.05;8.93;;;8.80;99.90;;;;;;5052770;28;20070;-77
2022/04/15 07:24:45;;;;;;;21.63;11.20;;;8.80;99.90;;;;;;5048148;28;20087;-77
2022/04/15 07:27:10;;;;;;;16.08;9.68;;;8.80;99.90;;;;;;5045934;28;20041;-77
2022/04/15 07:29:36;;;;;;;22.25;11.25;;;8.80;99.90;;;;;;5051275;28;20385;-77
2022/04/15 07:32:02;;;;;;;17.85;9.88;;;8.80;99.90;;;;;;5050581;28;20045;-77
2022/04/15 07:34:28;;;;;;;19.67;10.63;;;8.80;99.90;;;;;;5050309;28;20045;-77
2022/04/15 07:36:54;;;;;;;15.85;9.45;;;8.90;99.90;;;;;;5047745;28;20041;-76
2022/04/15 07:39:21;;;;;;;20.63;10.40;;;8.90;99.90;;;;;;5052110;28;20358;-77
2022/04/15 07:41:47;;;;;;;15.30;9.43;;;9.00;99.90;;;;;;5041911;28;20412;-77
2022/04/15 07:44:14;;;;;;;16.55;9.70;;;9.10;99.90;;;;;;5052224;28;20041;-77
2022/04/15 07:46:41;;;;;;;17.20;9.55;;;9.20;99.90;;;;;;5047416;28;20128;-77
2022/04/15 07:49:07;;;;;;;17.95;9.20;;;9.20;99.90;;;;;;5050895;28;20048;-77
2022/04/15 07:51:34;;;;;;;19.17;10.50;;;9.30;99.90;;;;;;5051059;28;20057;-76
2022/04/15 07:54:01;;;;;;;18.15;9.43;;;9.30;99.90;;;;;;5048378;28;20072;-77
2022/04/15 07:56:26;;;;;;;14.13;9.25;;;9.30;99.90;;;;;;5043953;28;20482;-77
2022/04/15 07:58:52;;;;;;;15.18;8.65;;;9.30;99.90;;;;;;5050014;28;20069;-77
2022/04/15 08:01:19;;;;;;;17.63;9.25;;;9.40;99.90;;;;;;5051091;28;20400;-77
2022/04/15 08:03:45;;;;;;;14.90;8.95;;;9.40;99.90;;;;;;5048226;28;20516;-77
2022/04/15 08:06:10;;;;;;;17.98;8.88;;;9.40;99.90;;;;;;5050996;28;20576;-76
2022/04/15 08:08:36;;;;;;;15.50;8.15;;;9.40;99.90;;;;;;5043501;28;20128;-76
2022/04/15 08:11:02;;;;;;;14.93;7.93;;;9.40;99.90;;;;;;5051304;28;20428;-77
2022/04/15 08:13:28;;;;;;;13.25;7.78;;;9.50;99.90;;;;;;5048434;28;20064;-77
2022/04/15 08:15:54;;;;;;;14.93;7.18;;;9.60;99.90;;;;;;5048168;28;20091;-75
2022/04/15 08:18:21;;;;;;;15.23;6.65;;;9.70;99.90;;;;;;5050379;28;20051;-77
2022/04/15 08:20:47;;;;;;;13.98;6.68;;;9.80;99.90;;;;;;5047986;28;20029;-76
2022/04/15 08:23:13;;;;;;;12.05;6.20;;;9.90;99.90;;;;;;5049013;28;20044;-76
2022/04/15 08:25:39;;;;;;;9.27;5.07;;;10.10;99.90;;;;;;5047970;28;20461;-76
2022/04/15 08:28:05;;;;;;;7.78;4.40;;;10.20;99.90;;;;;;5057006;28;20187;-76
2022/04/15 08:30:33;;;;;;;9.02;4.22;;;10.30;99.90;;;;;;5048333;28;20120;-76
2022/04/15 08:32:59;;;;;;;10.93;5.05;;;10.40;99.90;;;;;;5050069;28;20504;-77
2022/04/15 08:35:26;;;;;;;10.93;5.47;;;10.50;99.90;;;;;;5045965;28;20435;-76
2022/04/15 08:37:52;;;;;;;11.00;5.30;;;10.60;99.90;;;;;;5046350;28;20515;-77
2022/04/15 08:40:18;;;;;;;10.98;5.43;;;10.60;99.90;;;;;;5050188;28;20044;-76
2022/04/15 08:42:44;;;;;;;10.40;5.63;;;10.70;99.90;;;;;;5043828;28;20049;-77
2022/04/15 08:45:12;;;;;;;15.02;6.25;;;10.90;99.90;;;;;;5049997;28;20064;-76
2022/04/15 08:47:42;;;;;;;11.68;7.43;;;11.10;99.90;;;;;;5044555;28;20337;-76
2022/04/15 08:50:10;;;;;;;12.80;7.25;;;11.10;99.90;;;;;;5048736;28;20106;-76
2022/04/15 08:52:36;;;;;;;11.73;6.93;;;11.20;99.90;;;;;;5046458;28;20065;-77
2022/04/15 08:55:02;;;;;;;13.13;7.05;;;11.30;99.90;;;;;;5049969;28;20077;-76
2022/04/15 08:57:28;;;;;;;15.63;7.53;;;11.30;99.90;;;;;;5047361;28;20053;-76
2022/04/15 08:59:54;;;;;;;15.13;6.88;;;11.30;99.90;;;;;;5046150;28;20048;-76
2022/04/15 09:02:31;;;;;;;11.63;6.60;;;11.40;99.90;;;;;;5049025;28;20045;-76
2022/04/15 09:04:57;;;;;;;10.55;6.40;;;11.40;99.90;;;;;;5045713;28;20076;-76
2022/04/15 09:07:26;;;;;;;12.02;6.32;;;11.40;99.90;;;;;;5031050;28;20666;-76
2022/04/15 09:09:57;;;;;;;11.43;6.45;;;11.50;99.90;;;;;;5030151;28;20095;-76
2022/04/15 09:12:29;;;;;;;11.00;6.05;;;11.70;99.90;;;;;;5045559;28;20041;-76
2022/04/15 09:15:15;;;;;;;8.88;5.18;;;11.90;99.90;;;;;;5051102;28;20119;-76
2022/04/15 09:17:46;;;;;;;11.55;5.85;;;12.00;99.90;;;;;;5035199;28;20041;-75
2022/04/15 09:20:12;;;;;;;13.05;6.93;;;12.10;99.90;;;;;;5034644;28;20046;-76
2022/04/15 09:22:37;;;;;;;10.73;5.57;;;12.10;99.90;;;;;;5041259;28;20063;-75
2022/04/15 09:25:04;;;;;;;11.35;6.25;;;12.20;99.90;;;;;;5068910;28;20106;-74
2022/04/15 09:27:30;;;;;;;8.00;5.80;;;12.20;99.90;;;;;;5045101;28;20091;-76
2022/04/15 09:29:55;;;;;;;10.20;5.57;;;12.10;99.90;;;;;;5049740;28;20400;-75
2022/04/15 09:32:23;;;;;;;9.63;5.88;;;12.20;99.90;;;;;;5048502;28;20139;-75
2022/04/15 09:34:56;;;;;;;10.77;6.03;;;12.20;99.90;;;;;;5050545;28;20040;-76
2022/04/15 09:37:24;;;;;;;9.38;5.43;;;12.20;99.90;;;;;;5051099;28;20041;-76
2022/04/15 09:40:12;;;;;;;11.00;5.78;;;12.10;99.90;;;;;;5052335;28;20029;-76
2022/04/15 09:42:46;;;;;;;12.57;5.97;;;12.20;99.90;;;;;;5048791;28;20501;-75
2022/04/15 09:45:18;;;;;;;8.02;5.47;;;12.20;99.90;;;;;;5047800;28;20041;-76
2022/04/15 09:48:02;;;;;;;10.93;5.78;;;12.30;99.90;;;;;;5044767;28;20054;-76
2022/04/15 09:50:30;;;;;;;9.10;5.68;;;12.40;99.90;;;;;;5053372;28;20033;-75
2022/04/15 09:53:13;;;;;;;11.98;5.50;;;12.40;99.90;;;;;;5046519;28;20163;-75
2022/04/15 09:55:46;;;;;;;8.80;4.78;;;12.40;99.90;;;;;;5051196;28;20049;-76
2022/04/15 09:58:17;;;;;;;9.15;5.72;;;12.30;99.90;;;;;;5041634;28;20057;-74
2022/04/15 10:00:48;;;;;;;10.43;5.85;;;12.30;99.90;;;;;;5042466;28;20049;-76
2022/04/15 10:03:25;;;;;;;10.35;6.43;;;12.20;99.90;;;;;;5041412;28;20043;-76
2022/04/15 10:05:56;;;;;;;12.07;6.32;;;12.30;99.90;;;;;;5050747;28;20076;-76
2022/04/15 10:08:22;;;;;;;11.15;6.25;;;12.30;99.90;;;;;;5049749;28;20095;-76
2022/04/15 10:10:49;;;;;;;11.77;6.18;;;12.30;99.90;;;;;;5040645;28;20072;-76
2022/04/15 10:13:15;;;;;;;11.35;6.28;;;12.30;99.90;;;;;;5045220;28;20492;-76
2022/04/15 10:15:42;;;;;;;10.38;6.55;;;12.30;99.90;;;;;;5047875;28;20049;-76
2022/04/15 10:18:08;;;;;;;13.75;6.53;;;12.30;99.90;;;;;;5042164;28;20056;-76
2022/04/15 10:20:34;;;;;;;10.50;5.90;;;12.30;99.90;;;;;;5047604;28;20056;-76
2022/04/15 10:23:02;;;;;;;10.23;6.75;;;12.30;99.90;;;;;;5044982;28;20052;-76
2022/04/15 10:25:29;;;;;;;10.27;6.35;;;12.30;99.90;;;;;;5047534;28;20389;-76
2022/04/15 10:28:11;;;;;;;9.27;6.38;;;12.40;99.90;;;;;;5053264;28;20064;-75
2022/04/15 10:30:38;;;;;;;13.15;5.88;;;12.40;99.90;;;;;;5051807;28;20033;-76
2022/04/15 10:33:04;;;;;;;8.88;6.30;;;12.40;99.90;;;;;;5058285;28;20047;-75
2022/04/15 10:35:31;;;;;;;12.27;6.90;;;12.30;99.90;;;;;;5051431;28;20123;-75
2022/04/15 10:38:00;;;;;;;9.48;6.00;;;12.30;99.90;;;;;;5051463;28;20041;-76
2022/04/15 10:40:30;;;;;;;10.05;5.95;;;12.20;99.90;;;;;;5048123;28;20047;-76
2022/04/15 10:43:18;;;;;;;9.27;5.72;;;12.20;99.90;;;;;;5042991;28;20039;-75
2022/04/15 10:45:44;;;;;;;11.15;6.57;;;12.20;99.90;;;;;;5049812;28;20041;-74
2022/04/15 10:48:09;;;;;;;8.82;5.40;;;12.20;99.90;;;;;;5051445;28;20044;-76
2022/04/15 10:50:38;;;;;;;8.73;5.50;;;12.20;99.90;;;;;;5050339;28;20048;-77
2022/04/15 10:53:20;;;;;;;10.88;6.10;;;12.30;99.90;;;;;;5050461;28;20082;-75
2022/04/15 10:55:54;;;;;;;8.80;6.30;;;12.30;99.90;;;;;;5050859;28;20048;-72
2022/04/15 10:58:21;;;;;;;9.82;6.63;;;12.20;99.90;;;;;;5050659;28;20705;-74
2022/04/15 11:01:21;;;;;;;12.57;6.03;;;12.10;99.90;;;;;;5053240;28;20045;-74
2022/04/15 11:04:01;;;;;;;8.80;5.90;;;12.00;99.90;;;;;;5049490;28;20037;-74
2022/04/15 11:06:28;;;;;;;11.18;5.95;;;12.00;99.90;;;;;;5048850;28;20049;-74
2022/04/15 11:08:55;;;;;;;10.27;5.80;;;12.00;99.90;;;;;;5052752;28;20037;-74
2022/04/15 11:11:40;;;;;;;8.25;5.60;;;12.10;99.90;;;;;;5049475;28;20045;-74
2022/04/15 11:14:11;;;;;;;7.53;5.63;;;12.10;99.90;;;;;;5048889;28;20439;-74
2022/04/15 11:16:44;;;;;;;10.27;6.50;;;12.10;99.90;;;;;;5061589;28;20072;-74
2022/04/15 11:19:12;;;;;;;8.48;5.82;;;12.20;99.90;;;;;;5039538;28;20080;-74
2022/04/15 11:21:40;;;;;;;12.50;5.95;;;12.20;99.90;;;;;;5051016;28;20048;-75
2022/04/15 11:24:09;;;;;;;8.70;5.75;;;12.20;99.90;;;;;;5046570;28;20133;-73
2022/04/15 11:26:37;;;;;;;9.02;5.72;;;12.20;99.90;;;;;;5046036;28;20915;-72
2022/04/15 11:29:04;;;;;;;10.50;6.30;;;12.20;99.90;;;;;;5049826;28;20053;-72
2022/04/15 11:31:38;;;;;;;11.95;6.50;;;12.10;99.90;;;;;;5049353;28;20512;-72
2022/04/15 11:34:07;;;;;;;13.95;6.78;;;12.00;99.90;;;;;;5049733;28;20056;-72
2022/04/15 11:36:36;;;;;;;10.07;5.95;;;11.90;99.90;;;;;;5052718;28;20049;-72
2022/04/15 11:39:04;;;;;;;11.73;6.43;;;11.90;99.90;;;;;;5048119;28;20104;-72
2022/04/15 11:41:30;;;;;;;9.07;5.95;;;11.90;99.90;;;;;;5044232;28;20099;-72
2022/04/15 11:44:02;;;;;;;10.68;6.40;;;11.90;99.90;;;;;;5049315;28;20406;-73
2022/04/15 11:46:48;;;;;;;8.82;6.03;;;11.90;99.90;;;;;;5050327;28;20053;-72
2022/04/15 11:49:22;;;;;;;9.63;6.20;;;11.90;99.90;;;;;;5049510;28;20045;-72
2022/04/15 11:51:58;;;;;;;10.70;6.05;;;11.90;99.90;;;;;;5048523;28;20045;-72
2022/04/15 11:54:35;;;;;;;9.25;5.97;;;11.90;99.90;;;;;;5041971;28;20037;-72
2022/04/15 11:57:03;;;;;;;10.30;6.28;;;11.80;99.90;;;;;;5050459;28;20037;-73
2022/04/15 11:59:35;;;;;;;10.77;6.25;;;11.90;99.90;;;;;;5047941;28;20878;-72
2022/04/15 12:02:02;;;;;;;11.02;6.82;;;11.80;99.90;;;;;;5050437;28;20037;-72
2022/04/15 12:04:28;;;;;;;12.60;6.35;;;11.70;99.90;;;;;;5048106;28;20068;-72
2022/04/15 12:06:53;;;;;;;9.93;6.20;;;11.70;99.90;;;;;;5046068;28;20444;-73
2022/04/15 12:09:19;;;;;;;10.00;6.28;;;11.70;99.90;;;;;;5040538;28;20079;-72
2022/04/15 12:11:45;;;;;;;11.15;6.22;;;11.70;99.90;;;;;;5044087;28;20676;-72
2022/04/15 12:14:11;;;;;;;10.25;6.15;;;11.80;99.90;;;;;;5046219;28;20033;-72
2022/04/15 12:16:39;;;;;;;11.35;6.50;;;11.80;99.90;;;;;;5042736;28;20089;-72
2022/04/15 12:19:06;;;;;;;11.18;6.13;;;11.80;99.90;;;;;;5047338;28;20048;-71
2022/04/15 12:21:33;;;;;;;11.40;5.90;;;11.80;99.90;;;;;;5043086;28;20584;-73
2022/04/15 12:24:19;;;;;;;10.27;6.18;;;11.80;99.90;;;;;;5045909;28;20043;-72
2022/04/15 12:26:50;;;;;;;10.45;6.00;;;11.80;99.90;;;;;;5042506;28;20048;-72
2022/04/15 12:32:14;;;;;;;7.68;5.68;;;11.80;99.90;;;;;;5037391;28;20497;-72
2022/04/15 12:34:42;;;;;;;10.95;6.20;;;11.80;99.90;;;;;;5048081;28;20045;-72
2022/04/15 12:37:36;;;;;;;9.65;5.55;;;11.90;99.90;;;;;;5042307;28;20037;-72
2022/04/15 12:40:14;;;;;;;9.35;6.13;;;11.90;99.90;;;;;;5041709;28;20048;-72
2022/04/15 12:42:42;;;;;;;8.75;5.97;;;11.90;99.90;;;;;;5037526;28;20057;-72
2022/04/15 12:45:15;;;;;;;10.13;6.35;;;11.90;99.90;;;;;;5031088;28;20486;-72
2022/04/15 12:47:41;;;;;;;9.40;6.13;;;11.90;99.90;;;;;;5039620;28;20087;-72
2022/04/15 12:50:25;;;;;;;8.45;5.47;;;11.90;99.90;;;;;;5046764;28;20041;-72
2022/04/15 12:52:52;;;;;;;9.90;5.83;;;11.90;99.90;;;;;;5040358;28;20061;-72